Time;durP1;ratioP1;P1;durP2;ratioP2;P2;SDS_P1;SDS_P2;PMS_P1;PMS_P2;Temp;Humidity;BMP_temperature;BMP_pressure;BME280_temperature;BME280_humidity;BME280_pressure;Samples;Min_cycle;Max_cycle;Signal;HPM_P1;HPM_P2
2022/09/22 00:01:27;;;;;;;7.33;4.57;;;;;;;8.78;83.98;100485.59;124706;1098;104466;-74
2022/09/22 00:04:02;;;;;;;8.03;4.70;;;;;;;8.75;83.26;100488.08;124627;1099;104057;-75
2022/09/22 00:06:37;;;;;;;10.13;4.73;;;;;;;8.72;83.21;100486.22;124682;1099;104664;-74
2022/09/22 00:09:12;;;;;;;9.60;4.60;;;;;;;8.71;83.57;100488.77;124629;1098;104204;-74
2022/09/22 00:11:46;;;;;;;9.47;4.47;;;;;;;8.70;83.75;100492.23;124659;1099;101876;-74
2022/09/22 00:14:16;;;;;;;;;;;;;;;8.66;84.42;100491.19;124599;1099;104442;-74
2022/09/22 00:16:49;;;;;;;9.10;4.70;;;;;;;8.64;83.89;100495.47;124702;1099;104207;-74
2022/09/22 00:19:22;;;;;;;11.35;5.05;;;;;;;8.63;83.56;100493.66;124697;1099;104060;-74
2022/09/22 00:21:54;;;;;;;10.20;4.93;;;;;;;8.63;84.47;100491.05;124678;1099;104281;-73
2022/09/22 00:24:26;;;;;;;9.57;4.80;;;;;;;8.61;83.53;100492.72;124664;1098;104213;-74
2022/09/22 00:26:59;;;;;;;8.93;4.90;;;;;;;8.60;83.83;100489.22;124701;1099;102939;-74
2022/09/22 00:29:31;;;;;;;9.03;4.83;;;;;;;8.61;83.86;100488.37;124704;1099;104323;-74
2022/09/22 00:32:03;;;;;;;8.40;4.50;;;;;;;8.60;84.34;100486.60;124632;1099;104259;-74
2022/09/22 00:34:34;;;;;;;10.00;4.70;;;;;;;8.62;84.10;100484.94;124681;1099;103306;-75
2022/09/22 00:37:06;;;;;;;8.47;4.63;;;;;;;8.62;84.33;100490.17;124728;1098;104236;-74
2022/09/22 00:39:37;;;;;;;9.53;4.67;;;;;;;8.63;84.52;100488.44;124695;1099;102783;-74
2022/09/22 00:42:11;;;;;;;11.13;5.23;;;;;;;8.63;84.55;100485.82;124639;1098;102791;-74
2022/09/22 00:44:43;;;;;;;7.10;4.40;;;;;;;8.66;84.10;100490.30;124689;1099;104089;-74
2022/09/22 00:47:27;;;;;;;10.90;5.07;;;;;;;8.65;83.98;100484.19;124690;1099;104352;-74
2022/09/22 00:50:04;;;;;;;9.07;4.47;;;;;;;8.65;84.01;100486.80;124675;1099;102120;-74
2022/09/22 00:52:40;;;;;;;8.13;4.70;;;;;;;8.66;84.96;100485.95;124683;1098;104623;-74
2022/09/22 00:55:15;;;;;;;10.60;4.63;;;;;;;8.63;84.75;100480.59;124665;1099;104174;-75
2022/09/22 00:57:48;;;;;;;8.80;4.70;;;;;;;8.63;84.91;100489.35;124664;1099;104197;-74
2022/09/22 01:00:19;;;;;;;9.83;4.87;;;;;;;8.63;84.25;100484.13;124694;1099;104178;-74
2022/09/22 01:02:54;;;;;;;13.13;5.17;;;;;;;8.61;84.98;100487.48;124716;1098;102271;-74
2022/09/22 01:05:27;;;;;;;8.47;4.80;;;;;;;8.59;84.82;100479.57;124670;1099;104373;-74
2022/09/22 01:07:58;;;;;;;9.27;4.47;;;;;;;8.59;84.63;100479.57;124633;1098;104160;-75
2022/09/22 01:10:30;;;;;;;6.77;4.37;;;;;;;8.58;84.37;100479.51;124665;1098;104255;-74
2022/09/22 01:13:17;;;;;;;9.30;5.07;;;;;;;8.59;84.47;100478.69;124672;1098;102899;-74
2022/09/22 01:16:01;;;;;;;11.87;5.60;;;;;;;8.58;84.84;100483.00;124685;1099;104236;-75
2022/09/22 01:18:48;;;;;;;7.93;4.90;;;;;;;8.59;84.93;100487.42;124738;1099;104241;-74
2022/09/22 01:21:26;;;;;;;9.00;4.87;;;;;;;8.60;84.34;100483.07;124629;1098;104217;-74
2022/09/22 01:24:39;;;;;;;12.57;5.63;;;;;;;8.59;84.18;100482.19;124648;1099;104238;-74
2022/09/22 01:27:32;;;;;;;10.87;4.80;;;;;;;8.58;84.88;100479.51;124648;1099;111555;-74
2022/09/22 01:30:31;;;;;;;11.53;5.17;;;;;;;8.53;85.04;100481.04;124702;1099;104237;-74
2022/09/22 01:33:20;;;;;;;8.53;4.83;;;;;;;8.50;85.31;100479.17;124612;1099;104207;-74
2022/09/22 01:36:08;;;;;;;8.17;4.83;;;;;;;8.49;85.17;100477.37;124664;1099;104341;-75
2022/09/22 01:38:49;;;;;;;9.27;5.13;;;;;;;8.50;84.88;100480.91;124692;1099;102787;-74
2022/09/22 01:41:24;;;;;;;8.53;5.17;;;;;;;8.49;85.47;100473.88;124645;1099;102782;-75
2022/09/22 01:44:01;;;;;;;8.87;4.70;;;;;;;8.49;84.82;100468.64;124660;1099;104201;-74
2022/09/22 01:46:37;;;;;;;7.97;4.60;;;;;;;8.49;85.27;100479.98;124633;1099;104169;-74
2022/09/22 01:49:13;;;;;;;10.33;4.87;;;;;;;8.50;85.69;100479.17;124638;1099;104332;-74
2022/09/22 01:51:48;;;;;;;10.73;4.70;;;;;;;8.49;85.63;100481.72;124666;1099;104057;-74
2022/09/22 01:54:24;;;;;;;7.90;4.50;;;;;;;8.48;85.49;100491.30;124662;1099;102200;-74
2022/09/22 01:57:04;;;;;;;7.87;4.63;;;;;;;8.49;85.09;100484.33;124653;1099;104197;-74
2022/09/22 01:59:38;;;;;;;10.20;4.67;;;;;;;8.49;85.16;100486.95;124688;1098;102144;-75
2022/09/22 02:02:15;;;;;;;9.10;4.30;;;;;;;8.52;85.79;100481.85;124633;1099;104205;-74
2022/09/22 02:04:53;;;;;;;8.30;4.60;;;;;;;8.55;85.51;100476.76;124744;1099;104051;-74
2022/09/22 02:07:31;;;;;;;9.87;5.03;;;;;;;8.55;85.24;100484.60;124689;1098;104307;-74
2022/09/22 02:10:05;;;;;;;8.40;5.10;;;;;;;8.56;85.41;100487.28;124711;1099;104208;-74
2022/09/22 02:12:38;;;;;;;8.07;4.80;;;;;;;8.57;85.67;100490.78;124669;1098;104216;-74
2022/09/22 02:17:59;;;;;;;10.47;4.97;;;;;;;8.56;85.56;100500.36;124691;1099;104219;-74
2022/09/22 02:20:28;;;;;;;;;;;;;;;8.53;86.08;100495.00;124709;1099;102264;-74
2022/09/22 02:23:00;;;;;;;9.10;4.80;;;;;;;8.51;86.31;100495.75;124701;1099;102759;-74
2022/09/22 02:25:31;;;;;;;9.93;4.87;;;;;;;8.50;86.01;100487.02;124700;1099;104299;-74
2022/09/22 02:28:03;;;;;;;7.97;4.90;;;;;;;8.47;86.43;100489.50;124666;1099;104494;-73
2022/09/22 02:30:35;;;;;;;7.37;4.27;;;;;;;8.53;86.68;100500.23;124691;1099;104208;-74
2022/09/22 02:33:07;;;;;;;7.07;4.23;;;;;;;8.55;85.82;100501.18;124738;1099;104242;-75
2022/09/22 02:35:43;;;;;;;7.30;4.53;;;;;;;8.57;86.02;100503.86;124678;1098;102274;-75
2022/09/22 02:38:19;;;;;;;8.50;4.63;;;;;;;8.61;86.30;100497.95;124688;1099;104389;-75
2022/09/22 02:40:59;;;;;;;11.57;4.80;;;;;;;8.63;86.44;100505.05;124675;1099;104361;-74
2022/09/22 02:43:36;;;;;;;9.23;4.80;;;;;;;8.65;86.06;100505.12;124687;1098;104236;-74
2022/09/22 02:46:15;;;;;;;7.77;4.40;;;;;;;8.68;86.34;100493.87;124709;1098;104242;-75
2022/09/22 02:48:50;;;;;;;8.93;4.63;;;;;;;8.70;86.22;100495.73;124685;1099;104182;-74
2022/09/22 02:51:21;;;;;;;9.60;4.97;;;;;;;8.71;86.39;100501.84;124699;1099;104363;-75
2022/09/22 02:53:52;;;;;;;7.50;4.20;;;;;;;8.70;86.68;100500.97;124657;1098;104079;-75
2022/09/22 02:56:24;;;;;;;9.00;4.70;;;;;;;8.70;86.57;100498.35;124694;1099;102806;-74
2022/09/22 02:58:55;;;;;;;8.33;4.33;;;;;;;8.70;86.68;100510.55;124678;1099;104233;-75
2022/09/22 03:01:26;;;;;;;9.40;4.53;;;;;;;8.69;86.91;100503.52;124708;1099;104232;-74
2022/09/22 03:03:57;;;;;;;9.17;4.67;;;;;;;8.70;86.26;100506.20;124662;1099;104295;-75
2022/09/22 03:06:28;;;;;;;7.00;4.30;;;;;;;8.72;86.65;100507.15;124704;1099;102794;-75
2022/09/22 03:08:59;;;;;;;6.47;4.03;;;;;;;8.77;86.17;100515.20;124695;1099;104173;-75
2022/09/22 03:11:31;;;;;;;8.37;4.70;;;;;;;8.79;86.46;100513.56;124655;1099;101822;-75
2022/09/22 03:14:02;;;;;;;7.07;4.10;;;;;;;8.80;86.79;100517.95;124675;1099;104198;-74
2022/09/22 03:16:33;;;;;;;8.73;4.60;;;;;;;8.82;86.50;100526.78;124705;1099;104563;-74
2022/09/22 03:19:05;;;;;;;7.63;4.10;;;;;;;8.83;86.74;100523.31;124624;1099;104242;-74
2022/09/22 03:21:36;;;;;;;7.87;4.10;;;;;;;8.85;86.58;100524.30;124690;1099;104179;-74
2022/09/22 03:24:07;;;;;;;8.80;4.30;;;;;;;8.88;86.43;100527.05;124696;1099;104245;-75
2022/09/22 03:26:38;;;;;;;7.90;4.17;;;;;;;8.91;86.79;100519.33;124684;1099;102883;-74
2022/09/22 03:29:09;;;;;;;9.87;4.67;;;;;;;8.92;86.90;100521.09;124666;1099;104122;-74
2022/09/22 03:31:41;;;;;;;9.97;4.80;;;;;;;8.94;86.91;100519.45;124633;1099;104380;-74
2022/09/22 03:34:12;;;;;;;7.33;4.40;;;;;;;8.95;87.06;100518.60;124683;1099;103616;-74
2022/09/22 03:36:43;;;;;;;7.67;4.30;;;;;;;8.97;87.30;100523.91;124651;1099;103614;-74
2022/09/22 03:39:14;;;;;;;8.03;4.40;;;;;;;8.99;87.01;100525.77;124752;1099;104201;-74
2022/09/22 03:41:45;;;;;;;10.23;4.50;;;;;;;8.99;87.55;100523.15;124709;1099;104172;-74
2022/09/22 03:44:16;;;;;;;9.30;4.80;;;;;;;9.00;87.50;100531.89;124709;1099;104297;-74
2022/09/22 03:46:48;;;;;;;8.23;4.40;;;;;;;9.00;87.50;100527.53;124659;1099;102438;-75
2022/09/22 03:49:19;;;;;;;10.47;4.57;;;;;;;9.02;87.00;100521.48;124628;1099;102232;-74
2022/09/22 03:51:50;;;;;;;8.53;4.30;;;;;;;9.02;87.20;100522.36;124690;1099;104169;-74
2022/09/22 03:54:21;;;;;;;9.57;4.60;;;;;;;9.04;87.34;100522.42;124638;1098;104238;-74
2022/09/22 03:56:52;;;;;;;9.80;4.40;;;;;;;9.06;87.20;100523.41;124711;1099;104246;-74
2022/09/22 03:59:23;;;;;;;7.47;4.23;;;;;;;9.07;87.37;100525.17;124654;1099;103408;-74
2022/09/22 04:01:55;;;;;;;10.10;4.17;;;;;;;9.09;86.90;100524.42;124685;1099;104344;-74
2022/09/22 04:04:27;;;;;;;13.50;5.07;;;;;;;9.12;87.66;100526.28;124715;1099;104217;-73
2022/09/22 04:06:58;;;;;;;9.37;4.60;;;;;;;9.14;87.64;100527.23;124616;1099;104253;-73
2022/09/22 04:09:30;;;;;;;9.10;4.53;;;;;;;9.18;87.56;100526.55;124674;1099;102974;-73
2022/09/22 04:12:01;;;;;;;9.00;4.33;;;;;;;9.21;87.76;100525.76;124677;1099;104273;-74
2022/09/22 04:14:32;;;;;;;11.27;4.40;;;;;;;9.24;87.67;100521.56;124660;1099;104161;-74
2022/09/22 04:17:04;;;;;;;11.00;4.90;;;;;;;9.28;87.49;100518.22;124673;1099;104208;-74
2022/09/22 04:19:35;;;;;;;13.07;6.40;;;;;;;9.31;87.82;100518.34;124666;1099;102320;-74
2022/09/22 04:22:06;;;;;;;9.40;4.87;;;;;;;9.35;87.70;100516.77;124637;1099;103772;-73
2022/09/22 04:24:37;;;;;;;8.03;4.60;;;;;;;9.37;87.89;100515.09;124666;1099;104208;-74
2022/09/22 04:27:09;;;;;;;11.67;4.73;;;;;;;9.40;87.31;100514.34;124658;1099;104271;-74
2022/09/22 04:29:40;;;;;;;7.57;4.73;;;;;;;9.41;87.25;100511.78;124703;1098;104163;-74
2022/09/22 04:32:13;;;;;;;12.23;5.00;;;;;;;9.42;87.16;100516.16;124720;1099;104220;-73
2022/09/22 04:34:44;;;;;;;7.63;4.40;;;;;;;9.46;87.55;100515.47;124700;1099;104273;-73
2022/09/22 04:37:16;;;;;;;9.07;4.87;;;;;;;9.50;87.21;100516.48;124309;1099;104175;-74
2022/09/22 04:39:47;;;;;;;12.13;4.97;;;;;;;9.54;87.26;100513.16;124657;1098;104239;-74
2022/09/22 04:42:18;;;;;;;8.07;4.63;;;;;;;9.56;87.82;100507.98;124678;1099;103871;-74
2022/09/22 04:44:49;;;;;;;9.43;4.80;;;;;;;9.51;87.69;100498.20;124618;1099;104162;-74
2022/09/22 04:47:21;;;;;;;10.63;4.93;;;;;;;9.62;87.68;100506.48;124673;1099;102293;-74
2022/09/22 04:49:52;;;;;;;9.77;4.73;;;;;;;9.66;88.23;100510.11;124656;1099;102210;-73
2022/09/22 04:52:23;;;;;;;13.07;5.00;;;;;;;9.71;87.59;100503.35;124618;1099;104191;-73
2022/09/22 04:54:54;;;;;;;10.07;4.50;;;;;;;9.74;88.30;100511.33;124663;1099;104307;-73
2022/09/22 04:57:25;;;;;;;12.57;5.50;;;;;;;9.78;88.21;100501.86;124717;1099;104868;-74
2022/09/22 04:59:57;;;;;;;9.33;5.00;;;;;;;9.82;88.24;100501.15;124707;1099;104686;-73
2022/09/22 05:02:28;;;;;;;11.17;5.57;;;;;;;9.84;88.20;100505.59;124735;1099;101822;-74
2022/09/22 05:05:00;;;;;;;13.03;5.37;;;;;;;9.89;87.86;100505.77;124661;1099;102806;-73
2022/09/22 05:07:31;;;;;;;8.83;4.93;;;;;;;9.94;88.37;100498.09;124692;1099;101816;-73
2022/09/22 05:10:11;;;;;;;11.03;5.20;;;;;;;9.97;87.67;100500.83;124710;1099;104290;-74
2022/09/22 05:12:46;;;;;;;12.70;5.17;;;;;;;10.01;87.79;100505.36;124726;1099;104357;-74
2022/09/22 05:15:23;;;;;;;13.03;5.73;;;;;;;10.08;87.67;100509.98;124709;1099;104300;-74
2022/09/22 05:17:55;;;;;;;11.67;5.53;;;;;;;10.14;87.73;100497.11;124735;1099;102839;-75
2022/09/22 05:20:26;;;;;;;14.87;6.00;;;;;;;10.17;87.88;100501.58;124753;1099;104265;-74
2022/09/22 05:22:58;;;;;;;14.50;5.87;;;;;;;10.22;88.28;100506.17;124685;1098;104348;-74
2022/09/22 05:25:31;;;;;;;11.90;5.83;;;;;;;10.29;88.46;100516.89;124691;1099;104209;-73
2022/09/22 05:28:02;;;;;;;15.90;5.80;;;;;;;10.33;88.18;100510.94;124657;1099;104213;-73
2022/09/22 05:30:34;;;;;;;10.27;5.50;;;;;;;10.38;88.45;100501.53;124647;1099;104221;-73
2022/09/22 05:33:06;;;;;;;12.90;5.73;;;;;;;10.40;88.05;100500.73;124631;1099;102449;-74
2022/09/22 05:35:42;;;;;;;12.60;6.43;;;;;;;10.42;87.99;100499.07;124678;1099;104204;-74
2022/09/22 05:38:14;;;;;;;14.87;6.53;;;;;;;10.45;87.67;100497.39;124632;1099;104179;-73
2022/09/22 05:40:52;;;;;;;17.43;6.53;;;;;;;10.49;88.23;100504.55;124764;1099;104185;-73
2022/09/22 05:43:23;;;;;;;15.70;6.40;;;;;;;10.51;88.46;100506.36;124778;1099;104185;-74
2022/09/22 05:45:57;;;;;;;13.27;6.53;;;;;;;10.56;88.47;100509.16;125329;1099;104246;-74
2022/09/22 05:48:29;;;;;;;12.80;6.50;;;;;;;10.61;88.28;100499.70;124650;1099;104169;-74
2022/09/22 05:51:01;;;;;;;15.87;6.43;;;;;;;10.69;88.61;100498.27;124648;1099;104175;-74
2022/09/22 05:53:33;;;;;;;14.43;6.43;;;;;;;10.75;88.55;100502.81;124677;1098;104224;-73
2022/09/22 05:56:05;;;;;;;16.50;7.27;;;;;;;10.81;88.46;100500.41;124675;1098;104221;-73
2022/09/22 05:58:36;;;;;;;13.90;6.63;;;;;;;10.88;88.43;100498.91;124723;1099;102422;-74
2022/09/22 06:01:09;;;;;;;14.33;6.50;;;;;;;10.96;88.69;100502.67;124675;1099;103486;-73
2022/09/22 06:03:44;;;;;;;10.83;6.10;;;;;;;11.05;88.80;100500.37;124640;1098;104380;-75
2022/09/22 06:06:17;;;;;;;13.63;6.73;;;;;;;11.13;88.59;100501.51;124605;1099;104504;-74
2022/09/22 06:08:49;;;;;;;12.33;6.13;;;;;;;11.21;88.57;100508.77;124669;1099;102755;-73
2022/09/22 06:11:20;;;;;;;17.77;8.50;;;;;;;11.26;88.79;100507.17;125282;1098;102788;-73
2022/09/22 06:13:54;;;;;;;17.92;8.45;;;;;;;11.30;88.57;100515.20;124688;1098;104233;-74
2022/09/22 06:16:26;;;;;;;17.67;8.53;;;;;;;11.36;88.60;100514.52;124750;1099;104188;-75
2022/09/22 06:19:01;;;;;;;14.13;7.10;;;;;;;11.40;88.43;100519.02;124694;1099;104163;-75
2022/09/22 06:21:34;;;;;;;10.57;5.67;;;;;;;11.43;88.19;100516.48;124714;1099;104207;-74
2022/09/22 06:24:07;;;;;;;13.27;5.73;;;;;;;11.50;88.72;100517.59;124877;1099;104229;-74
2022/09/22 06:26:40;;;;;;;12.13;5.47;;;;;;;11.58;88.68;100504.70;124851;1099;104188;-74
2022/09/22 06:29:12;;;;;;;11.10;5.25;;;;;;;11.65;88.48;100504.91;126022;1098;104156;-74
2022/09/22 06:31:47;;;;;;;10.33;5.47;;;;;;;11.76;88.54;100514.88;124823;1099;104165;-75
2022/09/22 06:34:24;;;;;;;11.73;5.63;;;;;;;11.82;88.33;100515.95;124740;1099;104243;-75
2022/09/22 06:36:57;;;;;;;14.00;5.77;;;;;;;11.92;88.43;100517.19;124888;1099;104160;-75
2022/09/22 06:39:30;;;;;;;9.90;5.50;;;;;;;12.02;88.10;100513.97;124872;1099;105142;-75
2022/09/22 06:42:04;;;;;;;11.07;5.40;;;;;;;12.06;88.43;100514.98;124847;1099;104270;-74
2022/09/22 06:44:38;;;;;;;12.40;5.67;;;;;;;12.05;88.03;100518.44;124847;1099;104162;-75
2022/09/22 06:47:14;;;;;;;12.65;5.90;;;;;;;12.03;88.03;100517.52;124876;1099;103392;-75
2022/09/22 06:49:46;;;;;;;11.07;5.23;;;;;;;12.05;87.83;100518.44;124906;1099;104329;-75
2022/09/22 06:52:18;;;;;;;12.00;5.20;;;;;;;12.08;87.95;100513.27;124885;1099;104938;-74
2022/09/22 06:54:52;;;;;;;9.57;4.87;;;;;;;12.11;87.56;100517.75;124776;1099;104243;-74
2022/09/22 06:57:26;;;;;;;10.60;5.03;;;;;;;12.14;87.96;100513.45;124846;1099;102329;-75
2022/09/22 07:00:04;;;;;;;9.83;4.80;;;;;;;12.18;87.61;100515.31;124695;1099;104226;-74
2022/09/22 07:02:39;;;;;;;11.20;5.40;;;;;;;12.27;87.68;100517.33;124776;1099;101834;-74
2022/09/22 07:05:14;;;;;;;12.07;5.47;;;;;;;12.38;87.37;100512.38;124837;1099;104391;-74
2022/09/22 07:07:47;;;;;;;11.07;5.50;;;;;;;12.45;87.51;100519.61;124775;1099;104208;-76
2022/09/22 07:10:20;;;;;;;12.47;5.73;;;;;;;12.50;87.83;100506.58;124915;1099;102805;-76
2022/09/22 07:12:53;;;;;;;10.85;5.22;;;;;;;12.50;87.39;100507.46;124849;1099;104314;-75
2022/09/22 07:15:25;;;;;;;10.90;5.50;;;;;;;12.54;87.29;100516.33;124858;1099;104159;-76
2022/09/22 07:17:59;;;;;;;21.80;10.37;;;;;;;12.58;87.37;100521.72;124836;1099;104302;-75
2022/09/22 07:20:32;;;;;;;14.83;5.90;;;;;;;12.60;87.27;100519.13;124812;1099;104333;-75
2022/09/22 07:23:05;;;;;;;15.58;5.97;;;;;;;12.64;87.15;100522.77;124859;1099;104162;-75
2022/09/22 07:25:37;;;;;;;15.45;6.00;;;;;;;12.68;86.97;100520.22;125877;1098;104169;-76
2022/09/22 07:28:14;;;;;;;19.03;5.50;;;;;;;12.75;86.97;100521.30;124879;1099;103521;-76
2022/09/22 07:30:48;;;;;;;12.87;5.33;;;;;;;12.80;86.89;100527.58;124862;1099;102496;-76
2022/09/22 07:33:22;;;;;;;10.10;4.90;;;;;;;12.79;86.28;100523.15;124850;1099;102339;-75
2022/09/22 07:36:25;;;;;;;10.83;5.37;;;;;;;12.78;86.09;100526.66;124798;1099;104348;-75
2022/09/22 07:38:58;;;;;;;11.33;5.40;;;;;;;12.83;85.94;100522.39;124810;1098;104165;-75
2022/09/22 07:41:40;;;;;;;8.57;4.80;;;;;;;12.89;86.30;100526.95;124821;1099;104220;-75
2022/09/22 07:48:34;;;;;;;9.80;4.47;;;;;;;12.98;85.53;100516.66;124768;1099;102496;-75
2022/09/22 07:50:17;;;;;;;9.50;5.00;;;;;;;13.04;85.77;100513.27;124818;1099;104153;-76
2022/09/22 07:52:56;;;;;;;10.30;4.63;;;;;;;13.08;86.01;100523.05;124842;1099;103373;-75
2022/09/22 07:55:29;;;;;;;10.37;4.63;;;;;;;13.14;85.16;100523.20;124845;1099;104265;-75
2022/09/22 07:58:02;;;;;;;12.80;4.47;;;;;;;13.15;85.14;100527.63;124957;1099;103435;-74
2022/09/22 08:00:35;;;;;;;7.47;4.27;;;;;;;13.16;84.63;100528.52;124751;1099;104169;-75
2022/09/22 08:03:07;;;;;;;10.40;4.83;;;;;;;13.16;85.02;100533.78;124795;1099;101957;-74
2022/09/22 08:05:39;;;;;;;10.23;5.30;;;;;;;13.17;84.43;100533.82;124830;1097;103773;-75
2022/09/22 08:08:11;;;;;;;15.10;9.70;;;;;;;13.24;84.48;100541.01;124879;1099;102201;-75
2022/09/22 08:10:43;;;;;;;11.77;5.07;;;;;;;13.33;83.53;100539.48;124902;1099;103870;-75
2022/09/22 08:13:15;;;;;;;8.67;4.30;;;;;;;13.38;83.79;100538.75;124810;1099;104162;-75
2022/09/22 08:15:47;;;;;;;7.50;4.20;;;;;;;13.48;84.05;100539.90;124852;1099;102778;-75
2022/09/22 08:18:24;;;;;;;11.00;5.80;;;;;;;13.64;83.11;100535.87;124838;1099;104178;-75
2022/09/22 08:20:59;;;;;;;6.97;4.20;;;;;;;13.79;83.53;100535.33;124952;1099;102276;-76
2022/09/22 08:23:32;;;;;;;6.97;4.30;;;;;;;13.91;83.88;100537.37;125063;1099;104150;-77
2022/09/22 08:26:07;;;;;;;7.80;4.43;;;;;;;13.96;82.53;100536.63;124915;1099;103318;-77
2022/09/22 08:28:40;;;;;;;6.33;4.20;;;;;;;14.00;81.92;100540.22;124866;1099;104162;-74
2022/09/22 08:31:18;;;;;;;8.17;4.27;;;;;;;14.20;82.56;100532.73;124904;1099;102813;-75
2022/09/22 08:33:53;;;;;;;7.97;4.23;;;;;;;14.41;81.91;100532.28;124884;1099;102500;-75
2022/09/22 08:36:27;;;;;;;8.63;4.30;;;;;;;14.54;81.33;100534.33;124828;1099;104169;-75
2022/09/22 08:39:02;;;;;;;7.10;4.33;;;;;;;14.57;81.30;100536.14;124865;1099;104050;-76
2022/09/22 08:41:45;;;;;;;7.55;4.20;;;;;;;14.49;80.74;100527.16;124919;1099;104208;-76
2022/09/22 08:44:27;;;;;;;9.10;4.53;;;;;;;14.61;81.09;100529.20;125847;1099;104185;-75
2022/09/22 08:47:02;;;;;;;8.00;4.27;;;;;;;14.72;81.56;100523.28;124945;1099;104230;-76
2022/09/22 08:52:38;;;;;;;7.90;4.40;;;;;;;14.95;80.69;100532.48;126139;1098;104361;-76
2022/09/22 08:55:20;;;;;;;7.47;4.17;;;;;;;15.06;79.43;100521.23;124815;1099;102784;-76
2022/09/22 08:58:07;;;;;;;8.37;4.13;;;;;;;15.26;80.17;100520.70;124959;1099;104300;-76
2022/09/22 09:00:51;;;;;;;9.25;4.20;;;;;;;15.37;78.35;100520.88;124928;1099;104226;-76
2022/09/22 09:03:31;;;;;;;6.10;3.90;;;;;;;15.42;77.68;100522.72;124967;1099;104152;-77
2022/09/22 09:06:15;;;;;;;8.30;3.80;;;;;;;15.33;77.98;100517.27;125919;1098;102685;-77
2022/09/22 09:09:21;;;;;;;5.17;3.43;;;;;;;15.31;78.67;100510.20;124956;1099;104692;-77
2022/09/22 09:12:14;;;;;;;4.47;3.07;;;;;;;15.35;77.60;100512.01;125447;1098;104258;-77
2022/09/22 09:15:11;;;;;;;7.30;3.10;;;;;;;15.43;77.70;100500.70;124878;1099;104176;-75
2022/09/22 09:17:47;;;;;;;4.17;3.03;;;;;;;15.45;76.62;100500.73;124879;1099;104235;-74
2022/09/22 09:20:37;;;;;;;3.57;2.97;;;;;;;15.54;75.90;100500.88;124768;1099;102450;-75
2022/09/22 09:23:19;;;;;;;3.37;2.63;;;;;;;15.72;75.76;100496.72;124927;1099;104310;-77
2022/09/22 09:25:56;;;;;;;4.73;2.93;;;;;;;15.79;74.76;100503.92;124910;1099;104211;-76
2022/09/22 09:28:40;;;;;;;4.10;2.90;;;;;;;15.78;74.70;100499.48;124956;1099;102637;-77
2022/09/22 09:31:26;;;;;;;4.60;3.30;;;;;;;15.77;74.31;100511.84;125229;1099;103623;-77
2022/09/22 09:34:06;;;;;;;5.50;2.83;;;;;;;15.75;74.11;100492.39;124792;1099;104248;-77
2022/09/22 09:36:53;;;;;;;4.17;2.97;;;;;;;15.77;74.43;100498.61;124793;1099;102253;-76
2022/09/22 09:39:33;;;;;;;5.83;3.20;;;;;;;15.74;73.71;100490.59;124898;1099;102404;-77
2022/09/22 09:42:20;;;;;;;6.73;3.03;;;;;;;15.75;73.52;100492.39;124896;1099;104201;-76
2022/09/22 09:45:01;;;;;;;5.70;3.13;;;;;;;15.86;73.53;100492.55;124893;1099;104360;-76
2022/09/22 09:47:54;;;;;;;6.67;3.50;;;;;;;15.94;71.51;100490.91;124866;1099;104171;-77
2022/09/22 09:50:30;;;;;;;6.13;3.20;;;;;;;15.89;71.91;100491.70;124900;1098;104173;-76
2022/09/22 09:53:02;;;;;;;6.90;3.40;;;;;;;15.81;69.73;100499.53;124778;1099;102848;-75
2022/09/22 09:55:34;;;;;;;4.73;3.30;;;;;;;15.81;71.73;100489.83;125013;1099;104199;-75
2022/09/22 09:58:10;;;;;;;11.33;3.60;;;;;;;15.89;71.68;100486.41;124943;1099;104229;-76
2022/09/22 10:01:02;;;;;;;9.50;3.73;;;;;;;16.01;71.47;100480.41;124990;1099;104258;-73
2022/09/22 10:03:38;;;;;;;6.40;3.57;;;;;;;16.04;70.67;100486.62;124923;1099;104153;-76
2022/09/22 10:06:27;;;;;;;8.47;3.57;;;;;;;16.00;70.87;100482.14;125012;1099;104277;-77
2022/09/22 10:09:03;;;;;;;5.60;3.73;;;;;;;15.92;69.85;100486.45;125652;1099;102410;-77
2022/09/22 10:11:35;;;;;;;5.57;3.50;;;;;;;15.82;69.95;100472.22;124930;1097;104251;-76
2022/09/22 10:14:19;;;;;;;6.50;3.20;;;;;;;15.87;70.38;100474.93;124814;1099;104217;-76
2022/09/22 10:16:54;;;;;;;9.90;3.70;;;;;;;15.91;70.31;100474.08;124893;1097;104251;-77
2022/09/22 10:19:30;;;;;;;8.10;3.70;;;;;;;16.01;69.49;100472.47;124872;1099;104172;-76
2022/09/22 10:22:36;;;;;;;6.63;3.60;;;;;;;16.16;68.69;100472.67;124946;1098;104162;-76
2022/09/22 10:25:22;;;;;;;4.80;3.40;;;;;;;16.26;69.06;100473.66;124354;1102;104443;-76
2022/09/22 10:28:08;;;;;;;7.63;3.53;;;;;;;16.27;68.87;100467.50;124296;1102;109510;-75
2022/09/22 10:30:41;;;;;;;4.33;3.30;;;;;;;16.49;68.60;100472.16;124701;1099;102539;-76
2022/09/22 10:33:19;;;;;;;4.47;2.80;;;;;;;16.57;66.56;100463.42;126164;1098;103251;-75
2022/09/22 10:36:03;;;;;;;5.27;3.00;;;;;;;16.49;66.11;100466.86;124856;1099;104258;-76
2022/09/22 10:38:41;;;;;;;8.20;3.05;;;;;;;16.42;66.99;100467.66;124868;1098;119991;-76
2022/09/22 10:41:26;;;;;;;5.40;3.00;;;;;;;16.34;65.45;100469.34;124836;1099;104213;-75
2022/09/22 10:44:00;;;;;;;2.83;2.60;;;;;;;16.32;65.97;100471.97;124909;1099;104233;-75
2022/09/22 10:47:13;;;;;;;4.97;3.50;;;;;;;16.24;64.79;100468.34;124877;1099;103238;-76
2022/09/22 10:49:58;;;;;;;5.57;2.90;;;;;;;16.35;66.79;100471.13;124953;1099;104300;-76
2022/09/22 10:52:41;;;;;;;4.93;2.87;;;;;;;16.51;66.10;100469.53;124933;1099;104248;-75
2022/09/22 10:55:24;;;;;;;3.97;2.70;;;;;;;16.47;64.58;100470.36;124765;1099;104181;-74
2022/09/22 10:58:10;;;;;;;6.35;2.95;;;;;;;16.24;63.24;100467.47;124839;1099;104256;-75
2022/09/22 11:00:46;;;;;;;7.40;4.10;;;;;;;16.20;65.15;100466.52;124905;1098;102176;-76
2022/09/22 11:03:41;;;;;;;3.93;2.80;;;;;;;16.26;65.27;100465.72;124886;1099;104213;-75
2022/09/22 11:12:46;;;;;;;2.90;2.43;;;;;;;16.34;63.37;100464.04;124908;1099;104229;-76
2022/09/22 11:15:53;;;;;;;3.07;2.47;;;;;;;16.13;64.44;100457.63;124864;1099;102539;-74
2022/09/22 11:18:54;;;;;;;4.60;3.10;;;;;;;15.95;65.03;100458.27;125534;1099;104277;-76
2022/09/22 11:21:46;;;;;;;4.93;2.77;;;;;;;15.96;64.38;100459.17;125674;1099;104279;-76
2022/09/22 11:24:36;;;;;;;5.47;3.00;;;;;;;16.12;64.75;100447.89;124950;1099;104201;-75
2022/09/22 11:27:22;;;;;;;4.03;2.87;;;;;;;16.24;64.71;100451.59;126182;1096;102758;-76
2022/09/22 11:30:10;;;;;;;3.27;2.67;;;;;;;16.35;63.44;100442.88;124801;1099;110664;-74
2022/09/22 11:32:58;;;;;;;6.63;2.80;;;;;;;16.44;64.45;100450.05;124829;1100;104371;-75
2022/09/22 11:35:49;;;;;;;3.13;2.73;;;;;;;16.41;63.09;100447.36;124918;1099;104217;-76
2022/09/22 11:38:38;;;;;;;4.25;3.40;;;;;;;16.29;63.89;100445.45;124873;1099;102617;-77
2022/09/22 11:41:30;;;;;;;5.30;3.40;;;;;;;16.10;63.77;100446.13;124858;1099;102791;-75
2022/09/22 11:44:17;;;;;;;4.33;3.00;;;;;;;15.96;62.84;100451.23;124838;1099;104217;-75
2022/09/22 11:47:02;;;;;;;6.17;3.20;;;;;;;15.85;63.39;100445.80;124858;1099;102246;-74
2022/09/22 11:49:50;;;;;;;5.17;3.00;;;;;;;15.83;64.01;100433.41;124711;1099;102986;-75
2022/09/22 11:52:33;;;;;;;4.90;3.00;;;;;;;15.86;63.62;100434.33;124714;1099;102765;-74
2022/09/22 11:55:26;;;;;;;7.17;3.30;;;;;;;16.03;63.73;100439.84;124897;1099;104243;-75
2022/09/22 11:58:07;;;;;;;7.70;3.55;;;;;;;16.24;64.14;100425.98;124775;1099;104217;-75
2022/09/22 12:00:50;;;;;;;6.37;3.20;;;;;;;16.26;63.81;100433.95;124400;1099;102299;-74
2022/09/22 12:03:39;;;;;;;3.70;2.70;;;;;;;16.13;63.30;100439.09;124828;1098;104255;-75
2022/09/22 12:06:21;;;;;;;6.57;2.90;;;;;;;16.21;63.28;100433.02;124756;1099;104232;-75
2022/09/22 12:09:00;;;;;;;5.90;2.93;;;;;;;16.40;62.49;100440.28;124827;1098;104644;-75